Time;durP1;ratioP1;P1;durP2;ratioP2;P2;SDS_P1;SDS_P2;PMS_P1;PMS_P2;Temp;Humidity;BMP_temperature;BMP_pressure;BME280_temperature;BME280_humidity;BME280_pressure;Samples;Min_cycle;Max_cycle;Signal;HPM_P1;HPM_P2
2022/10/13 00:00:48;;;;;;;11.13;8.70;;;;;;;7.65;100.00;96822.81;6163220;23;20405;-78
2022/10/13 00:03:16;;;;;;;10.80;9.33;;;;;;;7.63;100.00;96835.50;6163158;23;20408;-79
2022/10/13 00:05:46;;;;;;;11.50;8.80;;;;;;;7.68;100.00;96864.31;6187535;23;20402;-78
2022/10/13 00:08:14;;;;;;;11.33;8.93;;;;;;;7.55;100.00;96854.59;6187349;23;20398;-78
2022/10/13 00:10:45;;;;;;;13.73;9.27;;;;;;;7.64;100.00;96863.38;6187599;23;20398;-78
2022/10/13 00:13:12;;;;;;;15.10;10.47;;;;;;;7.69;100.00;96865.88;6214411;23;20390;-78
2022/10/13 00:15:41;;;;;;;16.73;9.97;;;;;;;7.63;100.00;96850.50;6187617;23;20397;-78
2022/10/13 00:18:08;;;;;;;14.00;9.87;;;;;;;7.55;100.00;96851.97;6187417;23;20397;-78
2022/10/13 00:20:39;;;;;;;17.27;9.43;;;;;;;7.63;100.00;96861.81;6187797;23;20420;-78
2022/10/13 00:23:06;;;;;;;12.27;8.90;;;;;;;7.36;100.00;96824.97;6214099;23;20394;-78
2022/10/13 00:25:32;;;;;;;14.83;8.07;;;;;;;7.41;100.00;96830.91;6163086;23;20409;-78
2022/10/13 00:27:59;;;;;;;11.23;10.10;;;;;;;7.19;100.00;96803.72;6214068;23;20382;-78
2022/10/13 00:30:34;;;;;;;15.70;9.87;;;;;;;7.53;100.00;96855.97;6188586;23;20782;-78
2022/10/13 00:33:01;;;;;;;12.20;9.07;;;;;;;7.40;100.00;96839.88;6162701;23;20402;-78
2022/10/13 00:35:27;;;;;;;10.83;9.67;;;;;;;7.28;100.00;96821.16;6213830;23;20748;-78
2022/10/13 00:37:54;;;;;;;15.43;9.40;;;;;;;7.54;100.00;96875.94;6214012;23;20410;-78
2022/10/13 00:40:21;;;;;;;9.60;8.50;;;;;;;7.47;100.00;96851.84;6177643;23;20441;-78
2022/10/13 00:42:47;;;;;;;13.13;7.73;;;;;;;7.44;100.00;96842.69;6213929;23;20385;-78
2022/10/13 00:45:24;;;;;;;10.27;8.00;;;;;;;7.32;100.00;96869.47;6212562;23;20402;-78
2022/10/13 00:47:56;;;;;;;9.40;8.60;;;;;;;7.25;100.00;96876.22;6212529;23;20433;-78
2022/10/13 00:50:31;;;;;;;15.80;8.10;;;;;;;7.25;100.00;96870.94;6212533;23;20824;-78
2022/10/13 00:53:01;;;;;;;10.37;7.37;;;;;;;6.99;100.00;96829.34;6212983;23;20362;-78
2022/10/13 00:55:34;;;;;;;11.50;8.47;;;;;;;7.29;100.00;96861.41;6212577;23;20384;-78
2022/10/13 00:58:05;;;;;;;10.87;8.10;;;;;;;6.83;100.00;96812.28;6187843;23;20404;-78
2022/10/13 01:00:32;;;;;;;9.23;7.70;;;;;;;6.91;100.00;96814.22;6212536;23;20426;-78
2022/10/13 01:03:00;;;;;;;14.73;8.03;;;;;;;6.91;100.00;96816.06;6212334;23;20416;-78
2022/10/13 01:05:28;;;;;;;10.50;6.77;;;;;;;6.93;100.00;96841.00;6220807;23;20389;-78
2022/10/13 01:07:56;;;;;;;13.40;8.60;;;;;;;7.15;100.00;96871.91;6225841;23;20430;-78
2022/10/13 01:10:32;;;;;;;9.73;7.70;;;;;;;7.07;100.00;96869.94;6198440;23;20417;-78
2022/10/13 01:13:34;;;;;;;11.97;8.70;;;;;;;7.05;100.00;96872.06;6199962;23;20396;-78
2022/10/13 01:16:12;;;;;;;9.23;6.73;;;;;;;6.77;100.00;96829.19;6180490;23;20422;-78
2022/10/13 01:18:54;;;;;;;10.33;7.30;;;;;;;6.99;100.00;96875.88;6225168;23;21046;-77
2022/10/13 01:21:32;;;;;;;8.23;7.27;;;;;;;6.79;100.00;96833.09;6227191;23;20710;-78
2022/10/13 01:24:27;;;;;;;13.33;7.90;;;;;;;6.95;100.00;96867.00;6227080;23;20397;-78
2022/10/13 01:27:13;;;;;;;11.60;7.63;;;;;;;6.38;100.00;96801.44;6216712;23;20428;-78
2022/10/13 01:30:05;;;;;;;8.67;7.10;;;;;;;6.82;100.00;96863.28;6186907;23;20429;-78
2022/10/13 01:32:53;;;;;;;10.30;7.10;;;;;;;6.75;100.00;96868.91;6218216;23;20462;-79
2022/10/13 01:35:38;;;;;;;9.80;7.23;;;;;;;6.71;100.00;96865.28;6217019;23;20875;-79
2022/10/13 01:38:19;;;;;;;10.50;6.73;;;;;;;6.50;100.00;96835.91;6192304;23;20473;-79
2022/10/13 01:40:56;;;;;;;7.43;6.60;;;;;;;6.62;100.00;96866.22;6216378;23;21001;-79
2022/10/13 01:43:35;;;;;;;8.17;7.20;;;;;;;6.55;100.00;96865.81;6217246;23;20500;-79
2022/10/13 01:46:04;;;;;;;10.43;6.40;;;;;;;6.53;100.00;96868.72;6191520;23;20497;-79
2022/10/13 01:48:34;;;;;;;11.73;9.17;;;;;;;6.43;100.00;96842.63;6216667;23;20768;-79
2022/10/13 01:51:01;;;;;;;9.70;7.43;;;;;;;6.58;100.00;96855.50;6192080;23;20510;-79
2022/10/13 01:53:29;;;;;;;9.93;6.90;;;;;;;6.38;100.00;96817.19;6217029;23;20993;-79
2022/10/13 01:55:58;;;;;;;10.03;7.97;;;;;;;6.70;100.00;96869.00;6220066;23;20425;-79
2022/10/13 01:58:28;;;;;;;9.70;7.90;;;;;;;6.56;100.00;96833.22;6200316;23;20505;-79
2022/10/13 02:01:23;;;;;;;10.93;7.43;;;;;;;6.92;100.00;96865.72;6225782;23;20367;-79
2022/10/13 02:04:05;;;;;;;9.30;6.57;;;;;;;6.88;100.00;96862.13;6226011;23;20375;-79
2022/10/13 02:06:41;;;;;;;10.47;8.03;;;;;;;6.79;100.00;96853.31;6223864;23;20432;-79
2022/10/13 02:09:25;;;;;;;9.90;8.20;;;;;;;6.54;100.00;96822.97;6202319;23;20413;-79
2022/10/13 02:12:01;;;;;;;13.17;7.20;;;;;;;6.58;100.00;96821.38;6230747;23;20395;-79
2022/10/13 02:14:35;;;;;;;12.87;7.80;;;;;;;6.93;100.00;96858.63;6224776;23;20366;-79
2022/10/13 02:17:04;;;;;;;9.43;7.47;;;;;;;6.80;100.00;96852.25;6194697;23;20492;-79
2022/10/13 02:19:36;;;;;;;10.43;8.50;;;;;;;6.72;100.00;96845.06;6220672;23;20402;-79
2022/10/13 02:22:04;;;;;;;10.70;7.63;;;;;;;6.74;100.00;96848.16;6194783;23;20902;-79
2022/10/13 02:24:31;;;;;;;10.60;7.60;;;;;;;5.42;100.00;96646.22;6194874;23;20490;-79
2022/10/13 02:26:58;;;;;;;7.90;7.10;;;;;;;6.20;100.00;96747.91;6194754;23;20472;-79
2022/10/13 02:29:24;;;;;;;10.20;7.03;;;;;;;6.42;100.00;96817.44;6194445;23;20908;-79
2022/10/13 02:31:53;;;;;;;13.83;6.50;;;;;;;6.32;100.00;96802.59;6220356;23;20404;-79
2022/10/13 02:34:20;;;;;;;8.70;7.80;;;;;;;6.32;100.00;96792.09;6219590;23;20401;-79
2022/10/13 02:36:47;;;;;;;9.23;7.83;;;;;;;6.22;100.00;96787.00;6221487;23;20410;-79
2022/10/13 02:39:14;;;;;;;10.43;7.60;;;;;;;6.42;100.00;96781.44;6193904;23;20433;-79
2022/10/13 02:41:40;;;;;;;11.93;8.30;;;;;;;6.69;100.00;96801.75;6221028;23;20363;-79
2022/10/13 02:44:07;;;;;;;7.57;6.83;;;;;;;6.83;100.00;96807.03;6194101;23;20433;-79
2022/10/13 02:46:39;;;;;;;9.93;7.43;;;;;;;6.99;100.00;96834.59;6219332;23;20418;-79
2022/10/13 02:49:06;;;;;;;7.57;6.87;;;;;;;7.09;100.00;96834.41;6193237;23;20417;-79
2022/10/13 02:51:33;;;;;;;8.57;7.10;;;;;;;6.45;100.00;96736.22;6194167;23;20408;-79
2022/10/13 02:54:05;;;;;;;7.53;6.73;;;;;;;6.67;100.00;96774.19;6219662;23;20871;-79
2022/10/13 02:56:31;;;;;;;6.80;6.20;;;;;;;6.90;100.00;96811.88;6218976;23;20480;-79
2022/10/13 02:58:58;;;;;;;9.53;7.60;;;;;;;6.53;100.00;96776.78;6193612;23;20428;-79
2022/10/13 03:01:25;;;;;;;8.60;6.87;;;;;;;6.62;100.00;96795.28;6193478;23;20429;-79
2022/10/13 03:03:51;;;;;;;8.70;7.40;;;;;;;6.65;100.00;96806.00;6194331;23;20729;-79
2022/10/13 03:06:18;;;;;;;12.50;7.97;;;;;;;6.39;100.00;96763.59;6218267;23;20392;-79
2022/10/13 03:08:44;;;;;;;8.13;6.40;;;;;;;6.81;100.00;96828.34;6194065;23;20520;-79
2022/10/13 03:11:11;;;;;;;10.87;9.07;;;;;;;6.71;100.00;96796.19;6194280;23;20416;-80
2022/10/13 03:13:38;;;;;;;82.30;50.37;;;;;;;6.69;100.00;96791.22;6193865;23;20432;-79
2022/10/13 03:16:05;;;;;;;64.93;41.20;;;;;;;6.98;100.00;96834.88;6194442;23;20802;-79
2022/10/13 03:18:32;;;;;;;62.17;39.80;;;;;;;6.71;100.00;96780.44;6220765;23;20469;-79
2022/10/13 03:21:03;;;;;;;41.47;27.87;;;;;;;6.85;100.00;96802.25;6217553;23;20913;-79
2022/10/13 03:23:30;;;;;;;25.37;17.90;;;;;;;6.94;100.00;96805.75;6218003;23;20397;-79
2022/10/13 03:25:57;;;;;;;21.03;15.07;;;;;;;6.89;100.00;96789.31;6192182;23;20406;-80
2022/10/13 03:28:23;;;;;;;27.67;20.07;;;;;;;6.72;100.00;96764.38;6217160;23;20436;-79
2022/10/13 03:31:02;;;;;;;20.50;17.23;;;;;;;7.23;100.00;96838.91;6216887;23;20405;-79
2022/10/13 03:33:28;;;;;;;21.33;13.13;;;;;;;6.99;100.00;96789.91;6192712;23;20400;-80
2022/10/13 03:36:02;;;;;;;13.57;10.93;;;;;;;7.27;100.00;96832.00;6219461;23;20386;-79
2022/10/13 03:38:33;;;;;;;14.07;10.57;;;;;;;7.32;100.00;96827.41;6192492;23;20828;-79
2022/10/13 03:41:11;;;;;;;12.60;9.97;;;;;;;7.28;100.00;96823.81;6205742;23;20397;-79
2022/10/13 03:43:38;;;;;;;12.73;9.90;;;;;;;7.04;100.00;96784.53;6241449;22;20434;-79
2022/10/13 03:46:06;;;;;;;16.17;9.37;;;;;;;7.06;100.00;96786.88;6241850;23;20386;-79
2022/10/13 03:48:34;;;;;;;11.10;9.37;;;;;;;6.70;100.00;96723.69;6241985;22;20433;-79
2022/10/13 03:51:27;;;;;;;14.23;10.20;;;;;;;7.18;100.00;96797.69;6216572;23;20396;-79
2022/10/13 03:53:54;;;;;;;17.17;10.17;;;;;;;6.82;100.00;96734.50;6211479;23;20485;-79
2022/10/13 03:56:24;;;;;;;13.47;10.53;;;;;;;7.33;100.00;96822.91;6196976;23;20519;-79
2022/10/13 03:58:59;;;;;;;15.73;11.17;;;;;;;7.08;100.00;96782.91;6194521;23;20829;-80
2022/10/13 04:01:28;;;;;;;17.53;11.40;;;;;;;7.27;100.00;96809.09;6221182;23;20402;-79
2022/10/13 04:03:56;;;;;;;11.40;9.53;;;;;;;7.16;100.00;96784.06;6219637;23;20458;-79
2022/10/13 04:06:23;;;;;;;21.23;11.60;;;;;;;7.24;100.00;96803.66;6195132;23;20420;-80
2022/10/13 04:08:50;;;;;;;16.60;9.40;;;;;;;6.82;100.00;96722.16;6219222;23;20445;-80
2022/10/13 04:11:18;;;;;;;10.00;9.00;;;;;;;7.50;100.00;96814.44;6193404;23;20501;-79
2022/10/13 04:13:49;;;;;;;13.63;9.50;;;;;;;7.40;100.00;96800.41;6218601;23;20403;-80
2022/10/13 04:16:22;;;;;;;10.20;8.83;;;;;;;7.37;100.00;96803.66;6218596;23;20534;-79
2022/10/13 04:18:52;;;;;;;20.13;10.23;;;;;;;7.54;100.00;96815.41;6220374;23;20422;-80
2022/10/13 04:21:20;;;;;;;14.33;12.00;;;;;;;7.46;100.00;96802.94;6194200;23;20395;-80
2022/10/13 04:23:46;;;;;;;17.00;10.60;;;;;;;7.44;100.00;96790.09;6218892;23;20418;-80
2022/10/13 04:26:16;;;;;;;15.70;11.50;;;;;;;7.50;100.00;96796.81;6218386;23;20386;-80
2022/10/13 04:28:44;;;;;;;20.93;12.30;;;;;;;7.65;100.00;96783.34;6219289;23;20509;-80
2022/10/13 04:31:11;;;;;;;19.23;13.43;;;;;;;7.78;100.00;96810.72;6217291;23;20884;-79
2022/10/13 04:33:38;;;;;;;17.13;12.63;;;;;;;7.63;100.00;96785.50;6218499;23;20382;-79
2022/10/13 04:36:07;;;;;;;16.00;13.20;;;;;;;7.71;100.00;96779.50;6193871;23;20883;-80
2022/10/13 04:38:33;;;;;;;16.43;14.53;;;;;;;7.94;100.00;96800.63;6192584;23;20418;-79
2022/10/13 04:41:04;;;;;;;19.03;13.00;;;;;;;7.89;100.00;96798.88;6218167;23;20406;-79
2022/10/13 04:43:32;;;;;;;17.23;13.33;;;;;;;7.52;100.00;96733.38;6217468;23;20760;-79
2022/10/13 04:46:09;;;;;;;18.17;13.53;;;;;;;7.82;100.00;96795.09;6219233;23;20386;-79
2022/10/13 04:48:36;;;;;;;21.23;13.10;;;;;;;7.71;100.00;96774.25;6217181;23;20760;-79
2022/10/13 04:51:05;;;;;;;20.73;15.50;;;;;;;7.73;100.00;96787.09;6216915;23;20398;-79
2022/10/13 04:53:33;;;;;;;20.97;16.57;;;;;;;7.58;100.00;96779.53;6191936;23;20787;-79
2022/10/13 04:56:01;;;;;;;25.43;16.77;;;;;;;6.83;100.00;96654.59;6217264;23;20515;-80
2022/10/13 04:58:28;;;;;;;28.20;17.40;;;;;;;7.27;100.00;96722.31;6218044;23;20379;-80
2022/10/13 05:01:00;;;;;;;28.87;17.47;;;;;;;7.44;100.00;96741.94;6216374;23;20394;-79
2022/10/13 05:03:27;;;;;;;33.47;17.63;;;;;;;7.18;100.00;96710.91;6218137;23;20469;-79
2022/10/13 05:05:53;;;;;;;29.73;18.00;;;;;;;7.54;100.00;96760.94;6213503;23;20408;-79
2022/10/13 05:08:20;;;;;;;32.50;17.70;;;;;;;7.24;100.00;96711.59;6214378;23;20421;-80
2022/10/13 05:10:58;;;;;;;41.83;19.80;;;;;;;7.52;100.00;96763.09;6212935;23;20497;-79
2022/10/13 05:13:26;;;;;;;32.00;16.93;;;;;;;7.56;100.00;96750.13;6214487;23;20481;-79
2022/10/13 05:15:56;;;;;;;34.80;20.30;;;;;;;7.57;100.00;96749.03;6188185;23;20782;-79
2022/10/13 05:18:23;;;;;;;34.57;21.43;;;;;;;7.18;100.00;96697.00;6212630;23;20486;-80
2022/10/13 05:20:50;;;;;;;39.27;21.50;;;;;;;7.57;100.00;96756.94;6187867;23;20446;-80
2022/10/13 05:23:17;;;;;;;40.77;22.80;;;;;;;7.38;100.00;96717.63;6212259;23;20489;-80
2022/10/13 05:25:44;;;;;;;38.67;18.83;;;;;;;7.46;100.00;96727.44;6212514;23;20386;-80
2022/10/13 05:28:12;;;;;;;35.33;21.00;;;;;;;7.68;100.00;96753.78;6213925;23;20418;-80
2022/10/13 05:30:39;;;;;;;37.63;21.50;;;;;;;7.76;100.00;96762.84;6212284;23;20383;-80
2022/10/13 05:33:05;;;;;;;32.60;19.50;;;;;;;7.66;100.00;96742.78;6187306;23;20880;-80
2022/10/13 05:35:32;;;;;;;32.33;19.73;;;;;;;7.70;100.00;96742.97;6214158;23;20786;-79
2022/10/13 05:37:58;;;;;;;32.03;18.80;;;;;;;7.78;100.00;96742.28;6187465;23;20488;-79
2022/10/13 05:40:25;;;;;;;34.00;20.27;;;;;;;7.52;100.00;96701.81;6212522;23;20437;-79
2022/10/13 05:42:58;;;;;;;35.20;21.80;;;;;;;7.73;100.00;96726.56;6212125;23;20448;-80
2022/10/13 05:45:28;;;;;;;43.43;24.80;;;;;;;8.01;100.00;96761.47;6212571;23;20497;-80
2022/10/13 05:47:55;;;;;;;26.27;19.23;;;;;;;7.81;100.00;96731.13;6212881;23;21007;-80
2022/10/13 05:50:21;;;;;;;40.00;23.50;;;;;;;7.76;100.00;96714.69;6188090;23;20422;-80
2022/10/13 05:52:49;;;;;;;34.80;24.40;;;;;;;7.82;100.00;96734.56;6187947;23;20402;-80
2022/10/13 05:55:17;;;;;;;47.07;25.00;;;;;;;8.08;100.00;96771.63;6213492;23;20482;-79
2022/10/13 05:57:48;;;;;;;46.53;24.20;;;;;;;7.93;100.00;96734.03;6212877;23;20820;-79
2022/10/13 06:00:18;;;;;;;44.40;23.87;;;;;;;8.17;100.00;96767.19;6212963;23;20510;-79
2022/10/13 06:02:48;;;;;;;42.20;23.93;;;;;;;8.17;100.00;96775.88;6187793;23;20425;-79
2022/10/13 06:05:17;;;;;;;47.10;24.93;;;;;;;8.28;100.00;96768.53;6212153;23;20405;-79
2022/10/13 06:07:46;;;;;;;49.47;26.40;;;;;;;8.17;100.00;96743.50;6212616;23;20946;-79
2022/10/13 06:10:14;;;;;;;43.63;23.77;;;;;;;7.52;100.00;96654.44;6212750;23;20425;-79
2022/10/13 06:12:40;;;;;;;61.53;25.73;;;;;;;7.82;100.00;96703.75;6215235;23;20417;-80
2022/10/13 06:15:08;;;;;;;48.07;25.20;;;;;;;7.82;100.00;96708.22;6215253;23;20409;-79
2022/10/13 06:17:36;;;;;;;51.87;27.63;;;;;;;7.92;100.00;96716.69;6216521;23;20388;-80
2022/10/13 06:20:05;;;;;;;58.60;27.47;;;;;;;8.17;100.00;96739.00;6214495;23;20408;-80
2022/10/13 06:22:33;;;;;;;51.23;26.47;;;;;;;7.71;100.00;96668.19;6190914;23;20497;-80
2022/10/13 06:25:00;;;;;;;60.70;28.47;;;;;;;8.27;100.00;96751.13;6217402;23;20386;-79
2022/10/13 06:27:27;;;;;;;53.53;28.03;;;;;;;8.07;100.00;96712.13;6195436;23;20469;-79
2022/10/13 06:29:55;;;;;;;58.80;29.50;;;;;;;8.07;100.00;96714.75;6195018;23;20491;-79
2022/10/13 06:32:22;;;;;;;55.53;28.80;;;;;;;7.90;100.00;96684.59;6221293;23;20521;-79
2022/10/13 06:34:49;;;;;;;51.37;28.90;;;;;;;8.15;100.00;96709.56;6217365;23;20398;-80
2022/10/13 06:37:15;;;;;;;58.70;28.83;;;;;;;8.43;100.00;96756.84;6216866;23;20425;-79
2022/10/13 06:39:42;;;;;;;40.80;26.37;;;;;;;8.00;100.00;96691.47;6216961;23;20437;-79
2022/10/13 06:42:09;;;;;;;49.87;27.27;;;;;;;8.08;100.00;96706.56;6192093;23;20513;-79
2022/10/13 06:44:41;;;;;;;45.87;26.20;;;;;;;8.46;100.00;96764.16;6194207;23;20787;-80
2022/10/13 06:47:07;;;;;;;48.83;27.10;;;;;;;8.52;100.00;96765.56;6192495;23;20438;-80
2022/10/13 06:49:34;;;;;;;45.53;25.73;;;;;;;8.40;100.00;96746.91;6192576;23;20773;-80
2022/10/13 06:52:01;;;;;;;38.47;23.53;;;;;;;8.39;100.00;96745.34;6217160;23;20379;-79
2022/10/13 06:54:27;;;;;;;46.60;26.37;;;;;;;7.88;100.00;96659.63;6217618;23;20410;-80
2022/10/13 06:56:54;;;;;;;45.20;27.07;;;;;;;8.37;100.00;96736.97;6218465;23;20398;-80
2022/10/13 06:59:21;;;;;;;45.03;25.13;;;;;;;8.62;100.00;96769.81;6218657;23;20456;-80
2022/10/13 07:01:48;;;;;;;44.70;27.40;;;;;;;8.01;100.00;96679.84;6218638;23;20843;-80
2022/10/13 07:04:15;;;;;;;46.50;26.73;;;;;;;8.41;100.00;96727.38;6193287;23;20966;-79
2022/10/13 07:06:42;;;;;;;39.10;24.30;;;;;;;8.47;100.00;96728.81;6194182;23;20433;-79
2022/10/13 07:09:09;;;;;;;41.40;25.57;;;;;;;8.76;100.00;96767.88;6218029;23;20819;-79
2022/10/13 07:11:35;;;;;;;49.83;26.03;;;;;;;8.26;100.00;96697.66;6192943;23;20394;-79
2022/10/13 07:14:02;;;;;;;45.83;26.97;;;;;;;8.51;100.00;96727.91;6219923;23;20382;-80
2022/10/13 07:16:29;;;;;;;46.80;26.80;;;;;;;8.62;100.00;96749.50;6218068;23;20417;-79
2022/10/13 07:18:56;;;;;;;47.80;25.60;;;;;;;8.35;100.00;96702.25;6218037;23;20485;-80
2022/10/13 07:21:22;;;;;;;52.00;29.23;;;;;;;8.37;100.00;96705.34;6217792;23;20497;-80
2022/10/13 07:23:49;;;;;;;41.80;27.23;;;;;;;8.57;100.00;96721.44;6218608;23;20512;-79
2022/10/13 07:26:16;;;;;;;43.03;25.27;;;;;;;8.91;100.00;96762.19;6193284;23;20405;-79
2022/10/13 07:28:43;;;;;;;39.17;25.57;;;;;;;8.78;100.00;96741.97;6192644;23;20524;-79
2022/10/13 07:31:14;;;;;;;40.10;27.27;;;;;;;9.00;100.00;96763.03;6217265;23;20430;-79
2022/10/13 07:33:41;;;;;;;46.90;27.83;;;;;;;9.06;100.00;96755.75;6192145;23;21006;-79
2022/10/13 07:36:09;;;;;;;44.40;28.17;;;;;;;9.11;100.00;96758.25;6216699;23;20402;-80
2022/10/13 07:38:36;;;;;;;41.80;26.50;;;;;;;9.02;100.00;96729.22;6192358;23;20413;-80
2022/10/13 07:41:04;;;;;;;41.07;27.67;;;;;;;9.11;100.00;96747.72;6217624;23;20493;-79
2022/10/13 07:43:31;;;;;;;46.93;30.13;;;;;;;8.61;100.00;96676.78;6193185;23;20509;-79
2022/10/13 07:46:03;;;;;;;45.57;28.77;;;;;;;9.14;100.00;96749.72;6217750;23;20797;-79
2022/10/13 07:48:30;;;;;;;41.93;27.77;;;;;;;9.18;100.00;96754.06;6218944;23;20418;-79
2022/10/13 07:51:10;;;;;;;42.03;28.73;;;;;;;9.16;100.00;96745.69;6193373;23;20398;-79
2022/10/13 07:53:37;;;;;;;40.17;28.10;;;;;;;8.57;100.00;96644.22;6192770;23;20394;-80
2022/10/13 07:56:05;;;;;;;45.03;28.30;;;;;;;9.33;100.00;96738.91;6219552;23;20389;-79
2022/10/13 07:58:35;;;;;;;43.30;27.40;;;;;;;9.10;100.00;96703.94;6216890;23;20433;-79
2022/10/13 08:01:03;;;;;;;44.80;27.53;;;;;;;9.43;100.00;96746.53;6217656;23;20386;-79
2022/10/13 08:03:31;;;;;;;44.87;28.97;;;;;;;9.19;100.00;96687.03;6219128;23;20386;-79
2022/10/13 08:06:00;;;;;;;39.83;26.93;;;;;;;9.65;100.00;96745.66;6217545;23;20386;-80
2022/10/13 08:08:27;;;;;;;42.10;29.13;;;;;;;9.64;100.00;96742.22;6191212;23;20432;-79
2022/10/13 08:10:54;;;;;;;46.20;30.30;;;;;;;9.45;100.00;96707.41;6192302;23;20892;-79
2022/10/13 08:13:22;;;;;;;45.13;29.50;;;;;;;9.53;100.00;96708.50;6217422;23;20410;-79
2022/10/13 08:15:48;;;;;;;39.70;27.80;;;;;;;9.64;100.00;96715.06;6192266;23;20397;-79
2022/10/13 08:18:15;;;;;;;40.90;27.40;;;;;;;9.78;100.00;96726.25;6219147;23;20383;-79
2022/10/13 08:20:43;;;;;;;37.57;25.80;;;;;;;10.09;100.00;96752.47;6192083;23;20398;-79
2022/10/13 08:23:11;;;;;;;43.23;28.70;;;;;;;10.12;100.00;96759.00;6217228;23;20391;-79
2022/10/13 08:25:47;;;;;;;33.43;25.90;;;;;;;9.82;100.00;96713.97;6218810;23;20454;-80
2022/10/13 08:28:27;;;;;;;39.87;26.80;;;;;;;9.83;100.00;96707.59;6192002;23;20433;-79
2022/10/13 08:30:57;;;;;;;46.13;27.33;;;;;;;10.28;100.00;96752.97;6216782;23;20378;-80
2022/10/13 08:33:25;;;;;;;37.03;27.03;;;;;;;10.30;100.00;96752.66;6217559;23;20370;-80
2022/10/13 08:35:52;;;;;;;38.53;25.47;;;;;;;10.11;100.00;96715.94;6216816;23;20461;-79
2022/10/13 08:38:20;;;;;;;40.17;26.27;;;;;;;10.15;100.00;96726.66;6191993;23;20437;-80
2022/10/13 08:40:48;;;;;;;39.10;27.97;;;;;;;10.12;100.00;96716.72;6216545;23;21099;-80
2022/10/13 08:43:19;;;;;;;36.20;27.00;;;;;;;10.44;100.00;96747.19;6191864;23;20904;-80
2022/10/13 08:45:48;;;;;;;36.40;28.03;;;;;;;10.12;100.00;96700.88;6191908;23;20497;-80
2022/10/13 08:48:27;;;;;;;40.90;27.77;;;;;;;10.54;100.00;96755.53;6217443;23;20457;-80
2022/10/13 08:50:56;;;;;;;37.77;25.40;;;;;;;10.51;100.00;96747.47;6216963;23;20437;-80
2022/10/13 08:53:29;;;;;;;49.50;29.17;;;;;;;10.64;100.00;96747.28;6217543;23;20402;-79
2022/10/13 08:56:02;;;;;;;36.97;26.67;;;;;;;10.81;100.00;96748.31;6217219;23;20418;-80
2022/10/13 08:58:33;;;;;;;41.53;26.50;;;;;;;10.86;100.00;96746.28;6192224;23;20428;-80
2022/10/13 09:01:11;;;;;;;34.80;26.57;;;;;;;10.53;100.00;96676.53;6218310;23;20387;-79
2022/10/13 09:04:07;;;;;;;32.50;26.90;;;;;;;11.03;100.00;96748.06;6216191;23;20402;-80
2022/10/13 09:06:42;;;;;;;35.53;27.00;;;;;;;11.19;100.00;96753.59;6217078;23;20363;-80
2022/10/13 09:09:13;;;;;;;31.17;26.53;;;;;;;11.08;100.00;96720.66;6198434;23;20441;-79
2022/10/13 09:11:46;;;;;;;34.43;24.67;;;;;;;11.03;100.00;96707.59;6227357;23;20391;-79
2022/10/13 09:14:37;;;;;;;31.20;25.07;;;;;;;11.30;100.00;96767.25;6225794;23;20848;-78
2022/10/13 09:17:15;;;;;;;38.20;25.67;;;;;;;11.35;100.00;96759.91;6223980;23;20894;-78
2022/10/13 09:19:42;;;;;;;35.60;24.57;;;;;;;11.27;100.00;96742.19;6199075;23;20445;-78
2022/10/13 09:22:30;;;;;;;33.90;25.70;;;;;;;11.51;100.00;96763.56;6223701;23;20445;-78
2022/10/13 09:25:07;;;;;;;37.40;26.30;;;;;;;11.43;100.00;96745.84;6223855;23;20383;-79
2022/10/13 09:27:48;;;;;;;35.43;24.20;;;;;;;11.58;100.00;96764.91;6225411;23;20844;-79
2022/10/13 09:30:27;;;;;;;31.70;24.97;;;;;;;11.63;100.00;96768.16;6201148;23;20442;-78
2022/10/13 09:33:04;;;;;;;37.17;25.27;;;;;;;11.46;100.00;96729.31;6225248;23;20398;-79
2022/10/13 09:35:33;;;;;;;33.93;24.97;;;;;;;11.73;100.00;96770.41;6199807;23;20440;-78
2022/10/13 09:38:14;;;;;;;29.10;24.13;;;;;;;11.68;100.00;96746.78;6226265;23;20386;-79
2022/10/13 09:40:43;;;;;;;33.77;25.07;;;;;;;11.55;100.00;96722.09;6200898;23;20413;-79
2022/10/13 09:43:35;;;;;;;32.43;25.00;;;;;;;11.38;100.00;96706.31;6224220;23;20398;-79
2022/10/13 09:46:10;;;;;;;35.93;26.57;;;;;;;11.38;100.00;96698.38;6199202;23;20864;-79
2022/10/13 09:48:41;;;;;;;32.93;25.57;;;;;;;11.78;100.00;96751.69;6224166;23;20433;-79
2022/10/13 09:51:26;;;;;;;35.37;25.90;;;;;;;11.79;100.00;96755.16;6225802;23;20487;-79
2022/10/13 09:53:53;;;;;;;30.40;23.80;;;;;;;11.59;100.00;96703.69;6225829;23;20398;-78
2022/10/13 09:56:24;;;;;;;30.53;23.87;;;;;;;12.02;100.00;96744.97;6224832;23;20445;-79
2022/10/13 09:59:06;;;;;;;34.73;26.70;;;;;;;12.04;100.00;96746.22;6199708;23;20441;-79
2022/10/13 10:01:39;;;;;;;28.57;25.43;;;;;;;11.71;100.00;96697.66;6224541;23;20433;-79
2022/10/13 10:04:12;;;;;;;36.17;26.00;;;;;;;11.54;100.00;96688.75;6199616;23;20460;-79
2022/10/13 10:06:44;;;;;;;31.97;24.00;;;;;;;11.70;100.00;96702.19;6226953;23;20755;-79
2022/10/13 10:09:54;;;;;;;41.77;26.67;;;;;;;11.98;100.00;96741.44;6225924;23;20432;-79
2022/10/13 10:12:26;;;;;;;31.87;24.20;;;;;;;12.01;100.00;96744.19;6208441;23;20428;-79
2022/10/13 10:14:54;;;;;;;35.20;24.83;;;;;;;11.59;100.00;96679.06;6225012;23;20394;-79
2022/10/13 10:17:31;;;;;;;34.03;23.77;;;;;;;11.94;100.00;96714.03;6222870;23;20399;-79
2022/10/13 10:20:00;;;;;;;28.97;22.37;;;;;;;12.14;100.00;96742.38;6222193;23;20412;-79
2022/10/13 10:22:36;;;;;;;32.47;24.40;;;;;;;12.09;100.00;96727.47;6223730;23;20389;-79
2022/10/13 10:25:25;;;;;;;28.37;23.50;;;;;;;12.12;100.00;96720.72;6221689;23;20413;-79
2022/10/13 10:28:29;;;;;;;25.17;20.93;;;;;;;11.88;100.00;96696.78;6226325;23;20413;-79
2022/10/13 10:31:17;;;;;;;35.90;22.53;;;;;;;12.19;100.00;96744.84;6197511;23;20794;-78
2022/10/13 10:33:57;;;;;;;30.30;22.83;;;;;;;12.19;100.00;96744.84;6230239;23;20390;-79
2022/10/13 10:36:40;;;;;;;26.07;20.47;;;;;;;12.09;100.00;96724.81;6201170;23;20969;-79
2022/10/13 10:39:26;;;;;;;33.50;23.97;;;;;;;12.12;100.00;96694.22;6224425;23;20434;-78
2022/10/13 10:42:13;;;;;;;27.17;21.67;;;;;;;12.09;100.00;96694.88;6225892;23;20892;-79
2022/10/13 10:44:46;;;;;;;29.07;20.47;;;;;;;11.71;100.00;96629.56;6226760;23;20374;-79
2022/10/13 10:47:27;;;;;;;30.50;21.90;;;;;;;12.48;100.00;96721.94;6228182;23;20406;-79
2022/10/13 10:50:00;;;;;;;27.53;21.20;;;;;;;12.20;100.00;96682.78;6229846;23;20440;-79
2022/10/13 10:52:42;;;;;;;29.13;21.57;;;;;;;12.23;100.00;96692.72;6228111;23;20363;-79
2022/10/13 10:55:22;;;;;;;27.97;21.37;;;;;;;12.49;100.00;96728.81;6204650;23;20425;-78
2022/10/13 10:58:00;;;;;;;25.30;20.70;;;;;;;12.50;100.00;96722.41;6202051;23;20405;-78
2022/10/13 11:00:27;;;;;;;29.93;23.40;;;;;;;12.12;100.00;96662.41;6199366;23;20756;-78
2022/10/13 11:03:09;;;;;;;26.03;21.50;;;;;;;12.56;100.00;96721.09;6146805;23;20405;-78
2022/10/13 11:05:56;;;;;;;33.80;21.57;;;;;;;12.60;100.00;96714.03;6221061;23;20764;-78
2022/10/13 11:08:37;;;;;;;30.00;20.03;;;;;;;12.64;100.00;96709.59;6176167;23;20411;-79
2022/10/13 11:11:19;;;;;;;25.87;20.00;;;;;;;12.60;100.00;96700.75;6224832;23;20366;-79
2022/10/13 11:14:01;;;;;;;32.17;19.97;;;;;;;12.51;100.00;96706.16;6217123;23;20726;-79
2022/10/13 11:16:31;;;;;;;24.17;20.70;;;;;;;12.47;100.00;96707.91;6193603;23;20394;-78
2022/10/13 11:19:21;;;;;;;33.67;21.47;;;;;;;12.26;100.00;96670.84;6194169;23;20449;-78
2022/10/13 11:21:57;;;;;;;34.80;21.60;;;;;;;12.43;100.00;96699.06;6217651;23;20394;-79
2022/10/13 11:24:33;;;;;;;30.40;21.70;;;;;;;12.51;100.00;96698.19;6223763;23;20397;-78
2022/10/13 11:27:06;;;;;;;23.70;20.00;;;;;;;12.46;100.00;96700.28;6222636;23;20401;-79
2022/10/13 11:29:50;;;;;;;26.90;19.70;;;;;;;12.49;100.00;96691.66;6224937;23;20425;-78
2022/10/13 11:32:26;;;;;;;27.40;19.73;;;;;;;12.61;100.00;96694.34;6226361;23;20716;-78
2022/10/13 11:35:03;;;;;;;24.47;20.13;;;;;;;12.25;100.00;96636.72;6223628;23;20417;-78
2022/10/13 11:37:51;;;;;;;24.70;19.97;;;;;;;12.59;100.00;96693.91;6225503;23;20369;-78
2022/10/13 11:41:09;;;;;;;30.70;20.00;;;;;;;12.54;100.00;96684.25;6225688;23;20804;-78